Time;durP1;ratioP1;P1;durP2;ratioP2;P2;SDS_P1;SDS_P2;PMS_P1;PMS_P2;Temp;Humidity;BMP_temperature;BMP_pressure;BME280_temperature;BME280_humidity;BME280_pressure;Samples;Min_cycle;Max_cycle;Signal;HPM_P1;HPM_P2
2023/04/14 07:33:45;;;;;;;;;;;;;;;8.73;61.86;99212.53;406015;54;70098;-83
2023/04/14 07:34:50;;;;;;;;;;;;;;;8.93;61.57;99210.53;1088392;54;19938;-80
2023/04/14 07:35:59;;;;;;;;;;;;;;;8.96;60.66;99220.06;1088221;54;19934;-80
2023/04/14 07:40:13;;;;;;;;;;;;;;;9.01;59.85;99221.28;1087936;54;19927;-80
2023/04/14 07:46:16;;;;;;;;;;;;;;;8.98;59.77;99221.59;1087430;54;19951;-80
2023/04/14 07:47:18;;;;;;;;;;;;;;;8.98;60.25;99218.91;1087464;54;19973;-82
2023/04/14 07:48:22;;;;;;;;;;;;;;;9.02;60.02;99216.78;1087437;54;19957;-79
2023/04/14 07:49:38;;;;;;;;;;;;;;;9.30;60.29;99220.16;1087464;54;19943;-81
2023/04/14 07:50:39;;;;;;;;;;;;;;;9.21;59.58;99224.59;1087585;54;20015;-81
2023/04/14 07:51:43;;;;;;;;;;;;;;;9.27;60.09;99220.47;1087552;54;19931;-80
2023/04/14 07:52:47;;;;;;;;;;;;;;;9.65;59.40;99220.16;1087477;54;19934;-81
2023/04/14 07:54:05;;;;;;;;;;;;;;;9.93;58.96;99219.94;1087393;54;19943;-80
2023/04/14 07:55:44;;;;;;;;;;;;;;;10.03;57.94;99215.31;1087042;54;19938;-81
2023/04/14 08:04:26;;;;;;;;;;;;;;;11.07;54.81;99209.66;1087232;54;19943;-81
2023/04/14 08:05:36;;;;;;;;;;;;;;;11.03;55.01;99209.16;1086670;54;19942;-81
2023/04/14 08:08:04;;;;;;;;;;;;;;;11.31;54.83;99208.78;1087024;54;19942;-80
2023/04/14 08:09:11;;;;;;;;;;;;;;;11.58;54.73;99203.19;1087094;54;19959;-81
2023/04/14 08:10:24;;;;;;;;;;;;;;;11.68;53.10;99204.69;1087658;54;19942;-80
2023/04/14 08:11:28;;;;;;;;;;;;;;;11.57;53.33;99206.91;1090596;47;19949;-80
2023/04/14 08:12:29;;;;;;;;;;;;;;;11.23;53.36;99214.97;1087420;54;19950;-81
2023/04/14 08:13:54;;;;;;;;;;;;;;;11.32;54.37;99198.91;1087791;47;19943;-81
2023/04/14 08:14:59;;;;;;;;;;;;;;;11.17;53.77;99213.00;1087630;54;19946;-82
2023/04/14 08:17:31;;;;;;;;;;;;;;;11.52;53.37;99202.06;1087300;54;19995;-82
2023/04/14 08:20:13;;;;;;;;;;;;;;;12.12;52.00;99197.16;1087104;54;19939;-80
2023/04/14 08:21:21;;;;;;;;;;;;;;;12.24;52.01;99203.78;1087343;54;19998;-82
2023/04/14 08:22:53;;;;;;;;;;;;;;;12.20;52.38;99196.28;1087966;54;19942;-79
2023/04/14 08:24:05;;;;;;;;;;;;;;;12.36;51.64;99203.41;1088612;46;19958;-82
2023/04/14 08:41:15;;;;;;;;;;;;;;;13.44;47.54;99180.03;1087524;54;19943;-81
2023/04/14 08:45:59;;;;;;;;;;;;;;;;;;;;;
2023/04/14 08:47:29;;;;;;;;;;;;;;;13.99;45.72;99175.19;1087406;54;19968;-81
2023/04/14 08:49:04;;;;;;;;;;;;;;;14.31;46.28;99181.09;1089160;39;20662;-81
2023/04/14 08:50:36;;;;;;;;;;;;;;;14.16;45.10;99170.44;1089152;46;19991;-79
2023/04/14 08:51:48;;;;;;;;;;;;;;;14.00;45.62;99171.47;1087920;54;19994;-80
2023/04/14 08:52:54;;;;;;;;;;;;;;;14.11;45.65;99172.84;1089057;46;19939;-81
2023/04/14 08:56:01;;;;;;;;;;;;;;;14.14;45.01;99167.09;1087772;54;19950;-80
2023/04/14 08:57:02;;;;;;;;;;;;;;;14.02;45.83;99164.06;1087444;54;19966;-80
2023/04/14 08:58:12;;;;;;;;;;;;;;;13.95;45.97;99173.06;1088548;46;19938;-79
2023/04/14 08:59:13;;;;;;;;;;;;;;;14.16;45.67;99178.50;1087549;54;19966;-80
2023/04/14 09:00:18;;;;;;;;;;;;;;;14.17;45.54;99171.25;1090404;39;20962;-80
2023/04/14 09:01:22;;;;;;;;;;;;;;;13.69;46.32;99179.78;1087384;54;19949;-80
2023/04/14 09:02:26;;;;;;;;;;;;;;;13.41;46.06;99172.38;1087505;54;19986;-80
2023/04/14 09:03:33;;;;;;;;;;;;;;;13.36;46.29;99175.56;1087058;54;19958;-81
2023/04/14 09:04:34;;;;;;;;;;;;;;;13.29;46.43;99171.13;1087530;54;19942;-79
2023/04/14 09:05:39;;;;;;;;;;;;;;;13.22;47.29;99173.69;1086884;54;19950;-80
2023/04/14 09:09:09;;;;;;;;;;;;;;;;;;;;;
2023/04/14 09:37:01;;;;;;;;;;;;;;;15.82;43.35;99130.69;1085309;54;19954;-80
2023/04/14 09:38:02;;;;;;;;;;;;;;;15.58;43.48;99140.94;1085255;31;20532;-80
2023/04/14 09:39:18;;;;;;;;;;;;;;;16.00;43.11;99137.44;1085390;54;19946;-80
2023/04/14 09:40:31;;;;;;;;;;;;;;;16.16;42.24;99138.91;1087726;46;19995;-82
2023/04/14 09:41:32;;;;;;;;;;;;;;;15.64;43.03;99149.25;1086441;54;20002;-80
2023/04/14 09:42:41;;;;;;;;;;;;;;;15.50;42.07;99140.28;1086293;54;19990;-80
2023/04/14 09:50:18;;;;;;;;;;;;;;;15.74;41.97;99139.78;1088118;54;19927;-81
2023/04/14 09:51:55;;;;;;;;;;;;;;;15.72;42.05;99139.16;1091133;46;19942;-81
2023/04/14 09:55:29;;;;;;;;;;;;;;;14.94;43.65;99145.53;1088088;54;19990;-82
2023/04/14 09:56:46;;;;;;;;;;;;;;;14.29;44.22;99147.38;1087387;46;19954;-81
2023/04/14 09:57:50;;;;;;;;;;;;;;;13.84;45.16;99153.72;1087529;46;20014;-80
2023/04/14 09:59:02;;;;;;;;;;;;;;;13.72;44.88;99148.00;1086189;54;19957;-80
2023/04/14 10:00:16;;;;;;;;;;;;;;;13.96;44.80;99145.19;1086158;54;19958;-80
2023/04/14 10:01:21;;;;;;;;;;;;;;;13.97;45.34;99153.03;1086033;46;19946;-80
2023/04/14 10:02:22;;;;;;;;;;;;;;;13.96;45.07;99153.25;1088399;46;19958;-80
2023/04/14 10:03:35;;;;;;;;;;;;;;;13.70;45.73;99154.56;1086918;54;19966;-82
2023/04/14 10:04:45;;;;;;;;;;;;;;;13.71;45.67;99145.47;1086730;54;20053;-80
2023/04/14 10:05:46;;;;;;;;;;;;;;;14.17;45.53;99139.81;1086841;54;19957;-80
2023/04/14 10:06:51;;;;;;;;;;;;;;;14.46;44.61;99142.59;1086525;54;19996;-80
2023/04/14 10:07:55;;;;;;;;;;;;;;;14.88;43.82;99135.53;1086283;54;19961;-80
2023/04/14 10:08:57;;;;;;;;;;;;;;;15.26;43.27;99127.09;1086541;54;19950;-81
2023/04/14 10:10:12;;;;;;;;;;;;;;;15.54;42.67;99130.78;1086274;54;19967;-81
2023/04/14 10:11:13;;;;;;;;;;;;;;;15.77;42.63;99111.59;1085541;54;19957;-81
2023/04/14 10:12:18;;;;;;;;;;;;;;;16.02;41.27;99117.31;1085420;54;19947;-82
2023/04/14 10:13:19;;;;;;;;;;;;;;;16.08;41.54;99125.63;1085359;54;19991;-80
2023/04/14 10:14:23;;;;;;;;;;;;;;;16.15;40.72;99126.50;1086729;54;19947;-81
2023/04/14 10:15:24;;;;;;;;;;;;;;;15.87;40.07;99122.88;1086502;54;19950;-82
2023/04/14 10:16:28;;;;;;;;;;;;;;;16.17;40.39;99127.09;1088033;39;20491;-81
2023/04/14 10:17:32;;;;;;;;;;;;;;;16.37;40.49;99122.56;1087047;39;20370;-81
2023/04/14 10:18:33;;;;;;;;;;;;;;;16.55;40.00;99123.84;1086508;54;19991;-81
2023/04/14 10:19:37;;;;;;;;;;;;;;;16.83;39.18;99114.69;1086104;54;19950;-81
2023/04/14 10:20:41;;;;;;;;;;;;;;;16.66;38.43;99109.72;1086161;54;19947;-82
2023/04/14 10:21:48;;;;;;;;;;;;;;;15.87;39.88;99112.09;1086113;54;19942;-81
2023/04/14 10:22:55;;;;;;;;;;;;;;;16.04;40.14;99111.72;1086743;54;20567;-80
2023/04/14 10:23:56;;;;;;;;;;;;;;;16.18;39.39;99115.28;1087859;47;19957;-82
2023/04/14 10:25:01;;;;;;;;;;;;;;;16.35;39.03;99113.84;1087766;54;19954;-82
2023/04/14 10:26:06;;;;;;;;;;;;;;;16.43;38.78;99114.72;1087389;54;19947;-81
2023/04/14 10:27:17;;;;;;;;;;;;;;;16.22;38.82;99108.44;1087762;54;19982;-82
2023/04/14 10:28:18;;;;;;;;;;;;;;;16.26;39.96;99107.00;1089095;39;20436;-81
2023/04/14 10:29:22;;;;;;;;;;;;;;;16.72;39.38;99107.25;1087529;54;19943;-82
2023/04/14 10:30:24;;;;;;;;;;;;;;;17.00;38.53;99094.38;1087974;54;19962;-82
2023/04/14 10:31:30;;;;;;;;;;;;;;;17.00;38.77;99096.25;1086558;46;19947;-82
2023/04/14 10:33:05;;;;;;;;;;;;;;;16.68;38.19;99101.41;1086863;54;19973;-82
2023/04/14 10:34:40;;;;;;;;;;;;;;;16.84;38.76;99101.03;1087281;54;19962;-81
2023/04/14 10:42:59;;;;;;;;;;;;;;;15.74;38.64;99093.13;1086931;54;19946;-81
2023/04/14 10:44:02;;;;;;;;;;;;;;;16.14;38.45;99085.19;1086995;54;20533;-81
2023/04/14 10:45:07;;;;;;;;;;;;;;;16.35;38.28;99092.28;1087002;47;20011;-82
2023/04/14 10:47:44;;;;;;;;;;;;;;;16.29;37.66;99079.63;1086864;54;19931;-78
2023/04/14 10:48:58;;;;;;;;;;;;;;;16.17;37.66;99078.56;1087160;46;19939;-79
2023/04/14 10:50:16;;;;;;;;;;;;;;;16.21;38.24;99072.56;1086964;54;19943;-81
2023/04/14 10:51:23;;;;;;;;;;;;;;;16.33;38.33;99067.41;1086373;54;19956;-77
2023/04/14 10:52:34;;;;;;;;;;;;;;;16.43;38.18;99068.88;1085752;54;19966;-79
2023/04/14 10:53:40;;;;;;;;;;;;;;;16.66;37.95;99063.88;1086505;54;19950;-80
2023/04/14 10:54:47;;;;;;;;;;;;;;;16.67;37.78;99062.00;1086285;47;20670;-79
2023/04/14 10:55:55;;;;;;;;;;;;;;;16.73;37.97;99066.56;1086206;47;19945;-80
2023/04/14 10:57:13;;;;;;;;;;;;;;;16.86;37.56;99049.53;1087135;54;19947;-80
2023/04/14 10:58:22;;;;;;;;;;;;;;;16.78;37.46;99057.84;1086558;54;19947;-78
2023/04/14 10:59:23;;;;;;;;;;;;;;;16.69;37.51;99060.75;1086464;54;19950;-79
2023/04/14 11:00:30;;;;;;;;;;;;;;;16.54;37.52;99060.13;1086474;47;20288;-79
2023/04/14 11:01:39;;;;;;;;;;;;;;;16.61;37.72;99058.28;1086975;54;19942;-79
2023/04/14 11:02:52;;;;;;;;;;;;;;;16.24;37.46;99059.69;1086859;54;19966;-78
2023/04/14 11:03:56;;;;;;;;;;;;;;;16.13;37.81;99056.56;1087125;54;19946;-80
2023/04/14 11:10:43;;;;;;;;;;;;;;;;;;;;;
2023/04/14 11:12:00;;;;;;;;;;;;;;;15.02;38.98;99049.53;1087246;54;19994;-80
2023/04/14 11:13:02;;;;;;;;;;;;;;;15.24;38.98;99045.72;1087536;39;20554;-80
2023/04/14 11:14:16;;;;;;;;;;;;;;;15.21;38.69;99046.09;1086880;54;19942;-80
2023/04/14 11:15:21;;;;;;;;;;;;;;;14.92;38.79;99039.94;1088495;39;20788;-79
2023/04/14 11:16:28;;;;;;;;;;;;;;;14.78;38.49;99038.22;1087077;39;19990;-80
2023/04/14 11:17:31;;;;;;;;;;;;;;;14.86;38.67;99039.91;1086426;54;20007;-79
2023/04/14 11:18:36;;;;;;;;;;;;;;;15.16;38.50;99042.34;1086766;54;19938;-80
2023/04/14 11:19:38;;;;;;;;;;;;;;;15.06;38.29;99035.47;1087412;46;19939;-80
2023/04/14 11:20:43;;;;;;;;;;;;;;;14.72;38.40;99039.81;1087294;46;19942;-80
2023/04/14 11:21:48;;;;;;;;;;;;;;;14.77;38.45;99042.75;1087120;54;19973;-82
2023/04/14 11:22:53;;;;;;;;;;;;;;;15.06;38.39;99048.09;1087558;46;19986;-80
2023/04/14 11:23:59;;;;;;;;;;;;;;;15.06;38.06;99046.22;1087310;54;19943;-79
2023/04/14 11:25:01;;;;;;;;;;;;;;;15.11;37.98;99041.06;1087522;47;19946;-79
2023/04/14 11:26:06;;;;;;;;;;;;;;;15.16;38.05;99029.72;1087243;54;19949;-78
2023/04/14 11:27:50;;;;;;;;;;;;;;;14.97;38.52;99029.41;1087520;54;19942;-83
2023/04/14 11:28:57;;;;;;;;;;;;;;;15.01;38.97;99035.25;1087350;54;19942;-81
2023/04/14 11:48:29;;;;;;;;;;;;;;;15.00;38.42;99019.28;1069414;54;19981;-82
2023/04/14 11:49:34;;;;;;;;;;;;;;;15.00;38.92;99016.59;1088368;54;19935;-79
2023/04/14 11:50:38;;;;;;;;;;;;;;;15.05;39.06;99014.97;1087455;54;19943;-79
2023/04/14 11:51:40;;;;;;;;;;;;;;;15.03;39.25;99008.94;1087382;54;19978;-80
2023/04/14 11:52:46;;;;;;;;;;;;;;;15.00;39.59;99003.97;1087442;54;19943;-79
2023/04/14 11:53:47;;;;;;;;;;;;;;;15.15;39.40;99003.00;1087260;54;20424;-80
2023/04/14 11:54:51;;;;;;;;;;;;;;;15.03;38.16;99011.63;1087621;54;19943;-81
2023/04/14 11:55:56;;;;;;;;;;;;;;;15.08;37.15;99014.56;1087432;54;19950;-80
2023/04/14 11:56:57;;;;;;;;;;;;;;;14.98;38.34;99017.59;1087757;54;19950;-79
2023/04/14 11:58:01;;;;;;;;;;;;;;;15.03;38.73;99003.56;1087746;54;20525;-80
2023/04/14 11:59:04;;;;;;;;;;;;;;;15.07;38.80;99010.22;1087746;54;19947;-78
2023/04/14 12:00:09;;;;;;;;;;;;;;;15.16;38.60;99007.34;1090177;39;20559;-79
2023/04/14 12:01:16;;;;;;;;;;;;;;;14.97;37.62;99017.81;1087485;54;19950;-80
2023/04/14 12:02:20;;;;;;;;;;;;;;;15.05;37.47;99006.88;1089164;46;19998;-79
2023/04/14 12:03:30;;;;;;;;;;;;;;;15.03;37.64;99006.25;1087208;54;19955;-80
2023/04/14 12:04:31;;;;;;;;;;;;;;;14.84;38.08;99009.66;1087288;47;19954;-80
2023/04/14 12:05:36;;;;;;;;;;;;;;;14.87;37.85;99011.97;1088257;46;20296;-80
2023/04/14 12:06:38;;;;;;;;;;;;;;;15.10;37.80;99008.97;1087577;54;19953;-82
2023/04/14 12:07:56;;;;;;;;;;;;;;;15.04;37.10;99007.09;1087641;54;19934;-80
2023/04/14 12:09:02;;;;;;;;;;;;;;;15.20;36.27;98995.97;1087824;54;19942;-81
2023/04/14 12:10:06;;;;;;;;;;;;;;;15.32;36.65;99003.50;1096648;39;20530;-81
2023/04/14 12:11:13;;;;;;;;;;;;;;;15.48;36.61;99003.13;1090881;39;20220;-81
2023/04/14 12:12:18;;;;;;;;;;;;;;;15.23;36.11;99002.81;1087620;54;19926;-81
2023/04/14 12:13:22;;;;;;;;;;;;;;;15.04;35.80;98999.84;1087190;54;20454;-81
2023/04/14 12:14:32;;;;;;;;;;;;;;;15.03;35.40;99003.56;1087853;54;19943;-79
2023/04/14 12:15:37;;;;;;;;;;;;;;;15.06;35.03;99003.16;1088087;39;20420;-81
2023/04/14 12:16:45;;;;;;;;;;;;;;;15.19;34.96;98998.88;1087740;54;19970;-81
2023/04/14 12:17:46;;;;;;;;;;;;;;;15.22;34.40;98993.09;1087841;54;19922;-80
2023/04/14 12:19:04;;;;;;;;;;;;;;;15.39;34.21;98991.72;1088006;54;19987;-81
2023/04/14 12:20:15;;;;;;;;;;;;;;;15.07;34.30;98987.84;1087814;54;19947;-81
2023/04/14 12:21:17;;;;;;;;;;;;;;;15.31;34.93;98989.19;1087901;54;19942;-81
2023/04/14 12:22:26;;;;;;;;;;;;;;;15.36;34.10;98986.72;1092106;46;19958;-81
2023/04/14 12:23:33;;;;;;;;;;;;;;;15.46;34.47;98988.22;1088589;46;19950;-80
2023/04/14 12:24:38;;;;;;;;;;;;;;;15.57;34.73;98974.97;1088644;46;19950;-81
2023/04/14 12:25:44;;;;;;;;;;;;;;;15.62;34.54;98968.97;1088212;54;19939;-81
2023/04/14 12:26:47;;;;;;;;;;;;;;;15.56;34.07;98970.63;1089135;46;19962;-79
2023/04/14 12:28:01;;;;;;;;;;;;;;;15.52;33.88;98965.84;1090127;46;19949;-82
2023/04/14 12:29:02;;;;;;;;;;;;;;;15.41;33.93;98968.09;1088075;54;19947;-81
2023/04/14 12:30:12;;;;;;;;;;;;;;;15.54;34.07;98963.78;1088169;54;20211;-81
2023/04/14 12:31:16;;;;;;;;;;;;;;;15.63;34.05;98975.22;1089375;46;19938;-82
2023/04/14 12:32:20;;;;;;;;;;;;;;;15.66;33.68;98969.41;1087797;54;19942;-79
2023/04/14 12:33:25;;;;;;;;;;;;;;;15.70;33.82;98963.41;1087624;54;19970;-78
2023/04/14 12:34:30;;;;;;;;;;;;;;;15.73;33.33;98960.31;1087595;54;19945;-78
2023/04/14 12:35:36;;;;;;;;;;;;;;;15.69;33.03;98959.03;1087743;54;20540;-79
2023/04/14 12:36:38;;;;;;;;;;;;;;;15.76;33.80;98967.13;1087576;54;19965;-81
2023/04/14 12:39:13;;;;;;;;;;;;;;;15.87;33.18;98953.09;1088610;54;19930;-85
2023/04/14 12:48:35;;;;;;;;;;;;;;;15.52;31.45;98945.16;1069906;54;19946;-79
2023/04/14 12:49:39;;;;;;;;;;;;;;;15.70;31.84;98947.22;1087235;54;19943;-78
2023/04/14 12:50:46;;;;;;;;;;;;;;;15.81;31.30;98940.44;1088456;54;19947;-85
2023/04/14 12:52:13;;;;;;;;;;;;;;;15.84;31.44;98939.22;1088913;39;20655;-83
2023/04/14 12:53:41;;;;;;;;;;;;;;;15.91;32.01;98940.03;1087750;54;19958;-81
2023/04/14 12:54:51;;;;;;;;;;;;;;;15.67;30.94;98944.97;1087599;54;19950;-81
2023/04/14 12:56:09;;;;;;;;;;;;;;;15.82;30.92;98933.16;1088143;46;20549;-79
2023/04/14 12:57:12;;;;;;;;;;;;;;;15.65;31.28;98930.88;1088413;46;19954;-79
2023/04/14 12:58:16;;;;;;;;;;;;;;;15.72;31.70;98931.69;1087470;54;19949;-79
2023/04/14 12:59:17;;;;;;;;;;;;;;;15.79;31.68;98930.88;1087590;54;19950;-79
2023/04/14 13:00:21;;;;;;;;;;;;;;;15.93;31.15;98931.72;1087562;54;19957;-79
2023/04/14 13:01:22;;;;;;;;;;;;;;;15.94;29.88;98922.63;1087485;54;19965;-79
2023/04/14 13:02:26;;;;;;;;;;;;;;;16.04;29.94;98923.88;1087488;54;19939;-79
2023/04/14 13:03:37;;;;;;;;;;;;;;;16.12;31.66;98924.69;1087498;54;19954;-79
2023/04/14 13:04:43;;;;;;;;;;;;;;;16.01;32.74;98924.28;1088106;46;19954;-80
2023/04/14 13:05:47;;;;;;;;;;;;;;;15.95;33.55;98925.13;1087528;54;19938;-80
2023/04/14 13:06:51;;;;;;;;;;;;;;;16.00;33.36;98922.63;1087522;54;19943;-79
2023/04/14 13:07:55;;;;;;;;;;;;;;;15.93;32.86;98920.94;1087095;54;19949;-79
2023/04/14 13:08:57;;;;;;;;;;;;;;;15.88;33.32;98925.13;1087278;54;20018;-79
2023/04/14 13:10:00;;;;;;;;;;;;;;;15.71;33.11;98913.06;1087459;54;19938;-79
2023/04/14 13:11:02;;;;;;;;;;;;;;;15.78;33.06;98919.28;1087492;54;19938;-80
2023/04/14 13:12:06;;;;;;;;;;;;;;;15.61;33.47;98918.84;1087529;46;19954;-79
2023/04/14 13:13:09;;;;;;;;;;;;;;;15.57;33.81;98918.41;1087593;54;19950;-78
2023/04/14 13:14:13;;;;;;;;;;;;;;;15.85;33.79;98919.31;1087714;54;19943;-80
2023/04/14 13:15:14;;;;;;;;;;;;;;;15.84;33.31;98915.78;1087633;54;19942;-79
2023/04/14 13:16:18;;;;;;;;;;;;;;;15.86;33.67;98913.72;1087624;54;19950;-80
2023/04/14 13:17:19;;;;;;;;;;;;;;;15.93;33.70;98920.94;1087687;54;19943;-78
2023/04/14 13:18:23;;;;;;;;;;;;;;;15.61;33.48;98913.44;1087674;54;19950;-79
2023/04/14 13:19:24;;;;;;;;;;;;;;;15.83;33.73;98908.69;1087557;54;19947;-78
2023/04/14 13:20:31;;;;;;;;;;;;;;;15.93;33.05;98915.56;1087572;54;20013;-79
2023/04/14 13:21:33;;;;;;;;;;;;;;;15.71;33.14;98913.88;1087640;54;19981;-78
2023/04/14 13:22:38;;;;;;;;;;;;;;;15.38;32.94;98903.91;1087924;46;19950;-78
2023/04/14 13:23:39;;;;;;;;;;;;;;;15.35;33.41;98901.59;1087451;54;19962;-79
2023/04/14 13:24:43;;;;;;;;;;;;;;;15.42;33.62;98904.31;1087445;54;19942;-78
2023/04/14 13:25:44;;;;;;;;;;;;;;;15.61;33.37;98897.28;1087477;54;19950;-79
2023/04/14 13:26:48;;;;;;;;;;;;;;;15.72;33.37;98910.16;1087475;54;19949;-80
2023/04/14 13:27:50;;;;;;;;;;;;;;;15.76;32.75;98905.16;1087759;46;19965;-80
2023/04/14 13:28:54;;;;;;;;;;;;;;;15.61;33.07;98902.66;1087608;54;19942;-80
2023/04/14 13:29:58;;;;;;;;;;;;;;;15.54;33.52;98896.44;1087347;54;19966;-80
2023/04/14 13:31:00;;;;;;;;;;;;;;;15.41;33.26;98892.69;1087486;54;19950;-81
2023/04/14 13:32:03;;;;;;;;;;;;;;;15.57;33.59;98890.66;1087418;54;19957;-79
2023/04/14 13:33:04;;;;;;;;;;;;;;;15.67;32.91;98890.25;1087436;54;19950;-79
2023/04/14 13:34:09;;;;;;;;;;;;;;;15.64;32.76;98886.09;1087517;54;19950;-79
2023/04/14 13:35:12;;;;;;;;;;;;;;;15.71;33.19;98875.34;1087489;54;19963;-79
2023/04/14 13:36:21;;;;;;;;;;;;;;;15.81;33.22;98877.59;1087317;54;19950;-79
2023/04/14 13:50:49;;;;;;;;;;;;;;;15.49;32.98;98862.06;1086531;54;19935;-80
2023/04/14 13:51:55;;;;;;;;;;;;;;;15.56;33.05;98859.38;1087157;54;19946;-80
2023/04/14 13:52:57;;;;;;;;;;;;;;;15.60;32.93;98852.53;1087481;54;19946;-81
2023/04/14 13:54:06;;;;;;;;;;;;;;;15.86;32.96;98857.13;1087618;54;19953;-80
2023/04/14 13:55:08;;;;;;;;;;;;;;;16.04;32.27;98858.34;1087570;54;19947;-81
2023/04/14 13:56:21;;;;;;;;;;;;;;;16.13;32.70;98861.66;1087382;54;20058;-81
2023/04/14 13:58:56;;;;;;;;;;;;;;;16.12;32.62;98851.91;1087703;54;19946;-82
2023/04/14 14:01:49;;;;;;;;;;;;;;;16.26;32.28;98845.44;1087749;54;20471;-82
2023/04/14 14:02:50;;;;;;;;;;;;;;;16.22;32.56;98844.22;1087353;54;19939;-82
2023/04/14 14:04:00;;;;;;;;;;;;;;;16.24;31.98;98846.69;1087854;54;19930;-82
2023/04/14 14:05:02;;;;;;;;;;;;;;;16.19;32.02;98852.72;1087826;54;19938;-81
2023/04/14 14:06:12;;;;;;;;;;;;;;;16.34;32.56;98847.91;1087811;54;19993;-79
2023/04/14 14:07:16;;;;;;;;;;;;;;;16.12;32.34;98836.56;1090147;39;20475;-81
2023/04/14 14:08:27;;;;;;;;;;;;;;;16.29;32.47;98839.63;1087728;54;19965;-80
2023/04/14 14:09:28;;;;;;;;;;;;;;;16.33;32.41;98835.50;1087676;54;19951;-81
2023/04/14 14:10:44;;;;;;;;;;;;;;;16.33;31.84;98830.09;1087261;54;20030;-80
2023/04/14 14:11:45;;;;;;;;;;;;;;;16.23;31.88;98832.41;1087446;54;19950;-80
2023/04/14 14:12:49;;;;;;;;;;;;;;;16.23;32.01;98843.19;1087292;54;19947;-82
2023/04/14 14:13:50;;;;;;;;;;;;;;;16.18;31.80;98832.19;1087548;54;19945;-80
2023/04/14 14:15:15;;;;;;;;;;;;;;;16.05;31.94;98839.28;1087560;54;19962;-82
2023/04/14 14:16:18;;;;;;;;;;;;;;;16.09;32.11;98836.16;1087849;54;19946;-81
2023/04/14 14:17:29;;;;;;;;;;;;;;;16.05;31.44;98833.91;1087264;54;19994;-80
2023/04/14 14:18:30;;;;;;;;;;;;;;;16.09;31.81;98828.91;1087687;54;19950;-80
2023/04/14 14:19:49;;;;;;;;;;;;;;;15.97;31.95;98831.38;1087384;54;19951;-81
2023/04/14 14:20:51;;;;;;;;;;;;;;;15.84;32.08;98834.13;1087354;54;19958;-80
2023/04/14 14:21:56;;;;;;;;;;;;;;;15.89;31.64;98837.00;1087769;54;20504;-81
2023/04/14 14:23:06;;;;;;;;;;;;;;;16.11;31.83;98836.78;1087455;47;19954;-80
2023/04/14 14:24:11;;;;;;;;;;;;;;;16.14;31.54;98833.66;1087308;54;19946;-81
2023/04/14 14:25:14;;;;;;;;;;;;;;;16.20;31.49;98836.31;1087618;54;19954;-81
2023/04/14 14:26:18;;;;;;;;;;;;;;;16.30;31.82;98835.91;1087355;54;19942;-79
2023/04/14 14:27:20;;;;;;;;;;;;;;;16.28;31.26;98837.16;1087651;54;19946;-81
2023/04/14 14:28:24;;;;;;;;;;;;;;;16.29;31.73;98834.25;1087431;54;19949;-82
2023/04/14 14:29:37;;;;;;;;;;;;;;;16.28;31.26;98837.97;1087736;54;20453;-79
2023/04/14 14:30:38;;;;;;;;;;;;;;;16.15;31.70;98838.03;1087591;54;19973;-80
2023/04/14 14:31:49;;;;;;;;;;;;;;;16.22;31.28;98833.44;1087409;54;20444;-81
2023/04/14 14:32:51;;;;;;;;;;;;;;;16.32;31.27;98827.59;1087841;46;19947;-81
2023/04/14 14:34:16;;;;;;;;;;;;;;;16.37;31.34;98835.88;1087668;54;19939;-80
2023/04/14 14:35:18;;;;;;;;;;;;;;;16.29;31.07;98831.53;1089834;46;19947;-81
2023/04/14 14:36:29;;;;;;;;;;;;;;;16.31;30.92;98826.78;1087746;54;20030;-80
2023/04/14 14:37:31;;;;;;;;;;;;;;;16.21;30.67;98831.78;1087739;54;19954;-80
2023/04/14 14:40:02;;;;;;;;;;;;;;;16.42;31.00;98819.88;1087732;54;20006;-82
2023/04/14 14:41:06;;;;;;;;;;;;;;;16.59;30.94;98825.63;1087747;54;20006;-83
2023/04/14 14:43:41;;;;;;;;;;;;;;;16.25;30.59;98826.78;1087709;54;19943;-81
2023/04/14 14:44:49;;;;;;;;;;;;;;;16.42;30.19;98825.28;1087781;54;20014;-80
2023/04/14 14:45:53;;;;;;;;;;;;;;;16.12;30.34;98823.06;1090644;39;20448;-80
2023/04/14 14:47:10;;;;;;;;;;;;;;;16.17;30.29;98825.13;1087681;54;19947;-80
2023/04/14 14:48:12;;;;;;;;;;;;;;;15.89;30.21;98826.22;1088482;39;20308;-80
2023/04/14 14:49:22;;;;;;;;;;;;;;;15.76;30.51;98824.34;1087493;54;20031;-80
2023/04/14 14:50:24;;;;;;;;;;;;;;;15.80;30.56;98832.84;1087490;54;19965;-80
2023/04/14 14:51:28;;;;;;;;;;;;;;;15.79;30.64;98821.25;1087177;54;19954;-81
2023/04/14 14:52:54;;;;;;;;;;;;;;;15.77;31.02;98833.28;1087397;54;20437;-82
2023/04/14 14:53:59;;;;;;;;;;;;;;;15.96;30.97;98827.06;1087492;54;19969;-83
2023/04/14 14:55:09;;;;;;;;;;;;;;;16.14;30.94;98823.69;1087789;54;19951;-81
2023/04/14 14:56:17;;;;;;;;;;;;;;;16.26;30.65;98823.88;1088285;46;19947;-81
2023/04/14 14:57:20;;;;;;;;;;;;;;;16.38;30.39;98824.88;1087739;54;20308;-81
2023/04/14 14:58:30;;;;;;;;;;;;;;;16.08;29.56;98823.69;1087509;54;19973;-81
2023/04/14 14:59:35;;;;;;;;;;;;;;;16.29;30.04;98819.94;1087605;54;19954;-80
2023/04/14 15:01:58;;;;;;;;;;;;;;;16.03;30.11;98819.78;1087575;54;19950;-82
2023/04/14 15:03:19;;;;;;;;;;;;;;;16.12;30.56;98816.88;1087616;54;19962;-80
2023/04/14 15:04:23;;;;;;;;;;;;;;;15.88;29.91;98821.88;1087683;54;19935;-80
2023/04/14 15:05:29;;;;;;;;;;;;;;;15.95;29.64;98814.63;1087218;54;19946;-82
2023/04/14 15:06:33;;;;;;;;;;;;;;;16.14;30.27;98820.19;1088238;39;20384;-81
2023/04/14 15:07:35;;;;;;;;;;;;;;;16.23;30.17;98816.22;1087532;54;19942;-82
2023/04/14 15:08:39;;;;;;;;;;;;;;;16.22;29.86;98817.25;1087709;54;19949;-81
2023/04/14 15:09:45;;;;;;;;;;;;;;;16.22;29.79;98817.25;1087564;54;19930;-81
2023/04/14 15:10:49;;;;;;;;;;;;;;;16.30;29.89;98819.72;1087640;54;19934;-81
2023/04/14 15:12:14;;;;;;;;;;;;;;;16.31;29.68;98820.53;1087451;54;19957;-81
2023/04/14 15:13:20;;;;;;;;;;;;;;;16.30;30.29;98825.13;1087583;54;19950;-81
2023/04/14 15:14:22;;;;;;;;;;;;;;;16.21;30.67;98816.41;1087376;54;20547;-82
2023/04/14 15:15:38;;;;;;;;;;;;;;;16.21;30.37;98821.81;1087433;54;20006;-81
2023/04/14 15:16:40;;;;;;;;;;;;;;;16.03;30.75;98819.78;1087459;54;19943;-80
2023/04/14 15:17:50;;;;;;;;;;;;;;;15.88;30.78;98827.25;1087634;54;19946;-81
2023/04/14 15:18:51;;;;;;;;;;;;;;;15.83;31.21;98825.16;1087285;54;19958;-81
2023/04/14 15:19:57;;;;;;;;;;;;;;;15.70;30.85;98828.69;1087685;54;19949;-81
2023/04/14 15:20:58;;;;;;;;;;;;;;;15.92;31.22;98817.72;1089820;39;20361;-80
2023/04/14 15:22:24;;;;;;;;;;;;;;;16.00;30.63;98814.81;1087385;54;19947;-81
2023/04/14 15:23:27;;;;;;;;;;;;;;;16.13;31.05;98818.53;1087269;54;19950;-82
2023/04/14 15:24:41;;;;;;;;;;;;;;;16.18;30.52;98826.78;1087434;54;19950;-82
2023/04/14 15:25:42;;;;;;;;;;;;;;;16.20;30.56;98827.41;1088187;39;20330;-81
2023/04/14 15:26:46;;;;;;;;;;;;;;;16.09;30.22;98828.91;1087401;54;19946;-81
2023/04/14 15:27:48;;;;;;;;;;;;;;;16.05;30.77;98816.88;1087783;54;19950;-80
2023/04/14 15:29:07;;;;;;;;;;;;;;;16.00;30.57;98820.19;1087690;54;19939;-81
2023/04/14 15:30:12;;;;;;;;;;;;;;;15.97;30.28;98826.00;1087471;54;19950;-81
2023/04/14 15:31:23;;;;;;;;;;;;;;;15.98;30.60;98832.25;1087105;54;19957;-80
2023/04/14 15:32:27;;;;;;;;;;;;;;;15.85;30.46;98830.38;1087468;54;19961;-80
2023/04/14 15:33:44;;;;;;;;;;;;;;;15.78;30.76;98832.22;1087432;54;19951;-82
2023/04/14 15:34:45;;;;;;;;;;;;;;;15.62;31.22;98831.59;1087553;54;19954;-81
2023/04/14 15:36:01;;;;;;;;;;;;;;;15.79;31.41;98829.31;1087237;54;19966;-81
2023/04/14 15:37:02;;;;;;;;;;;;;;;15.96;31.00;98835.16;1087552;54;19950;-81
2023/04/14 15:38:06;;;;;;;;;;;;;;;15.97;30.77;98836.78;1087519;54;19946;-81
2023/04/14 15:39:08;;;;;;;;;;;;;;;16.04;31.11;98821.44;1087232;54;19989;-81
2023/04/14 15:41:32;;;;;;;;;;;;;;;16.31;30.73;98826.78;1087880;54;20011;-82
2023/04/14 15:43:00;;;;;;;;;;;;;;;16.52;30.93;98827.53;1088728;46;19958;-81
2023/04/14 15:44:04;;;;;;;;;;;;;;;16.75;30.12;98813.53;1090863;39;20444;-83
2023/04/14 15:45:24;;;;;;;;;;;;;;;16.74;30.04;98816.44;1089876;47;19930;-82
2023/04/14 15:46:26;;;;;;;;;;;;;;;16.72;29.92;98813.13;1087882;54;19950;-82
2023/04/14 15:48:48;;;;;;;;;;;;;;;16.55;30.55;98810.91;1087800;54;19923;-80
2023/04/14 15:49:55;;;;;;;;;;;;;;;16.62;30.09;98817.13;1087793;54;19991;-81
2023/04/14 15:50:57;;;;;;;;;;;;;;;16.82;30.09;98816.16;1088134;47;19947;-80